Time;durP1;ratioP1;P1;durP2;ratioP2;P2;SDS_P1;SDS_P2;PMS_P1;PMS_P2;Temp;Humidity;BMP_temperature;BMP_pressure;BME280_temperature;BME280_humidity;BME280_pressure;Samples;Min_cycle;Max_cycle;Signal;HPM_P1;HPM_P2
2022/05/08 00:00:00;;;;;;;2.72;1.70;;;24.00;47.80;;;;;;5021565;28;20442;-60
2022/05/08 00:02:25;;;;;;;2.45;1.60;;;24.00;48.30;;;;;;5019524;28;20044;-65
2022/05/08 00:04:53;;;;;;;2.80;1.60;;;24.00;47.80;;;;;;5019606;28;20454;-66
2022/05/08 00:07:22;;;;;;;2.33;1.50;;;24.00;47.80;;;;;;5021600;28;20725;-62
2022/05/08 00:09:49;;;;;;;2.47;1.40;;;24.00;47.70;;;;;;5021143;28;20095;-64
2022/05/08 00:12:16;;;;;;;2.85;1.33;;;24.00;47.80;;;;;;5021480;28;20032;-65
2022/05/08 00:14:42;;;;;;;2.30;1.40;;;24.00;48.30;;;;;;5021398;28;20060;-65
2022/05/08 00:17:11;;;;;;;2.20;1.30;;;23.90;47.70;;;;;;5002923;28;20021;-65
2022/05/08 00:19:38;;;;;;;2.40;1.40;;;23.90;47.80;;;;;;5019672;28;20405;-62
2022/05/08 00:22:05;;;;;;;2.63;1.35;;;23.90;47.70;;;;;;5018259;28;20104;-64
2022/05/08 00:24:31;;;;;;;3.45;1.40;;;23.90;47.70;;;;;;5020336;28;20041;-63
2022/05/08 00:26:57;;;;;;;2.75;1.50;;;23.90;47.80;;;;;;5020938;28;20033;-62
2022/05/08 00:29:22;;;;;;;1.95;1.40;;;23.90;47.80;;;;;;5017003;28;20524;-65
2022/05/08 00:31:48;;;;;;;2.13;1.33;;;23.90;47.80;;;;;;5012957;28;20048;-65
2022/05/08 00:34:14;;;;;;;2.63;1.60;;;23.90;47.80;;;;;;5018712;28;20492;-66
2022/05/08 00:36:39;;;;;;;1.77;1.50;;;23.90;47.80;;;;;;5019718;28;20114;-61
2022/05/08 00:39:05;;;;;;;2.00;1.30;;;23.90;47.80;;;;;;5021139;28;20408;-65
2022/05/08 00:41:31;;;;;;;1.90;1.50;;;23.90;47.80;;;;;;5022768;28;20437;-65
2022/05/08 00:43:57;;;;;;;2.22;1.48;;;23.80;48.20;;;;;;5019855;28;20056;-65
2022/05/08 00:46:22;;;;;;;2.03;1.40;;;23.80;47.70;;;;;;5005718;28;20024;-64
2022/05/08 00:48:48;;;;;;;1.92;1.20;;;23.80;47.70;;;;;;5017983;28;20044;-63
2022/05/08 00:51:16;;;;;;;2.30;1.50;;;23.80;47.70;;;;;;5021379;28;20029;-64
2022/05/08 00:53:48;;;;;;;1.70;1.38;;;23.80;47.70;;;;;;5022508;28;20025;-65
2022/05/08 00:56:15;;;;;;;2.05;1.30;;;23.80;47.70;;;;;;5022649;28;20216;-65
2022/05/08 00:58:43;;;;;;;2.53;1.50;;;23.80;47.70;;;;;;5023426;28;20997;-64
2022/05/08 01:01:09;;;;;;;2.40;1.50;;;23.80;47.70;;;;;;5021517;28;20148;-65
2022/05/08 01:03:36;;;;;;;2.22;1.48;;;23.70;47.70;;;;;;5022065;28;20283;-66
2022/05/08 01:06:11;;;;;;;2.10;1.40;;;23.70;47.70;;;;;;5023842;28;20037;-61
2022/05/08 01:08:38;;;;;;;2.17;1.52;;;23.70;47.70;;;;;;5023284;28;20037;-65
2022/05/08 01:11:05;;;;;;;2.50;1.73;;;23.80;47.70;;;;;;5024034;28;20044;-64
2022/05/08 01:13:31;;;;;;;2.25;1.40;;;23.70;48.20;;;;;;5024644;28;20377;-61
2022/05/08 01:15:57;;;;;;;2.53;1.40;;;23.70;47.70;;;;;;5022933;28;20030;-64
2022/05/08 01:18:23;;;;;;;1.90;1.40;;;23.70;47.70;;;;;;5019489;28;20320;-64
2022/05/08 01:20:48;;;;;;;2.10;1.30;;;23.70;47.70;;;;;;5005039;28;20029;-66
2022/05/08 01:23:21;;;;;;;2.15;1.50;;;23.70;48.20;;;;;;5021188;28;20102;-65
2022/05/08 01:25:57;;;;;;;1.88;1.40;;;23.70;47.70;;;;;;5022629;28;20079;-65
2022/05/08 01:28:24;;;;;;;1.67;1.30;;;23.70;47.70;;;;;;5023149;28;20132;-64
2022/05/08 01:30:54;;;;;;;1.90;1.40;;;23.70;47.70;;;;;;5023606;28;20102;-65
2022/05/08 01:33:20;;;;;;;2.20;1.60;;;23.70;47.60;;;;;;5020057;28;20032;-65
2022/05/08 01:35:47;;;;;;;1.45;1.20;;;23.70;47.70;;;;;;5021872;28;20533;-65
2022/05/08 01:38:16;;;;;;;2.10;1.30;;;23.60;47.60;;;;;;5021629;28;20079;-65
2022/05/08 01:40:43;;;;;;;1.98;1.40;;;23.60;47.60;;;;;;5024062;28;20400;-65
2022/05/08 01:43:10;;;;;;;1.88;1.30;;;23.60;47.50;;;;;;5023942;28;20068;-63
2022/05/08 01:45:36;;;;;;;2.22;1.50;;;23.60;47.60;;;;;;5023467;28;20057;-62
2022/05/08 01:50:46;;;;;;;2.00;1.42;;;23.60;47.60;;;;;;5018970;28;20501;-65
2022/05/08 01:53:12;;;;;;;1.90;1.38;;;23.60;47.60;;;;;;5021059;28;20023;-64
2022/05/08 01:55:37;;;;;;;2.17;1.35;;;23.60;47.60;;;;;;5021341;28;20033;-65
2022/05/08 01:58:03;;;;;;;2.15;1.45;;;23.60;47.60;;;;;;5022499;28;20044;-65
2022/05/08 02:00:30;;;;;;;1.52;1.20;;;23.60;47.60;;;;;;5020665;28;20045;-65
2022/05/08 02:03:02;;;;;;;1.70;1.30;;;23.60;47.60;;;;;;5020383;28;20198;-64
2022/05/08 02:05:28;;;;;;;2.10;1.50;;;23.60;47.60;;;;;;5020541;28;20322;-65
2022/05/08 02:07:54;;;;;;;1.75;1.30;;;23.60;47.60;;;;;;5022745;28;20052;-65
2022/05/08 02:10:20;;;;;;;1.50;1.23;;;23.60;47.60;;;;;;5022781;28;20037;-65
2022/05/08 02:12:46;;;;;;;2.22;1.23;;;23.60;47.60;;;;;;5024591;28;20044;-65
2022/05/08 02:15:12;;;;;;;2.20;1.20;;;23.50;47.50;;;;;;5024932;28;20033;-61
2022/05/08 02:17:39;;;;;;;1.88;1.40;;;23.60;47.60;;;;;;5021875;28;20537;-65
2022/05/08 02:20:07;;;;;;;2.10;1.30;;;23.50;47.60;;;;;;5020746;28;20033;-65
2022/05/08 02:22:36;;;;;;;1.60;1.40;;;23.50;47.60;;;;;;5020931;28;20099;-65
2022/05/08 02:25:03;;;;;;;1.80;1.40;;;23.50;47.60;;;;;;5011554;28;20129;-62
2022/05/08 02:27:40;;;;;;;2.78;1.58;;;23.50;47.50;;;;;;5023303;28;20044;-64
2022/05/08 02:30:10;;;;;;;1.77;1.48;;;23.50;47.60;;;;;;5022536;28;20545;-65
2022/05/08 02:32:37;;;;;;;2.25;1.30;;;23.50;47.50;;;;;;5021237;28;20044;-65
2022/05/08 02:35:07;;;;;;;2.00;1.20;;;23.50;47.60;;;;;;5019011;28;20345;-65
2022/05/08 02:37:33;;;;;;;2.10;1.40;;;23.50;47.60;;;;;;5021190;28;20374;-63
2022/05/08 02:39:59;;;;;;;1.75;1.30;;;23.40;47.50;;;;;;5020417;28;20819;-65
2022/05/08 02:42:26;;;;;;;1.70;1.17;;;23.40;47.50;;;;;;5023804;28;20119;-65
2022/05/08 02:44:51;;;;;;;1.75;1.38;;;23.40;47.50;;;;;;5021065;28;20033;-64
2022/05/08 02:47:17;;;;;;;2.38;1.50;;;23.50;47.60;;;;;;5023949;28;20040;-63
2022/05/08 02:49:42;;;;;;;1.88;1.30;;;23.50;47.60;;;;;;5020074;28;20075;-65
2022/05/08 02:52:08;;;;;;;1.98;1.40;;;23.40;47.50;;;;;;5024924;28;20084;-65
2022/05/08 02:54:34;;;;;;;1.90;1.30;;;23.40;47.50;;;;;;5022329;28;20140;-66
2022/05/08 02:59:44;;;;;;;1.60;1.20;;;23.40;47.50;;;;;;5021417;28;20849;-65
2022/05/08 03:02:09;;;;;;;1.80;1.30;;;23.40;47.50;;;;;;5021113;28;20034;-64
2022/05/08 03:04:35;;;;;;;1.75;1.40;;;23.40;47.50;;;;;;5020015;28;21284;-65
2022/05/08 03:07:03;;;;;;;1.73;1.20;;;23.40;47.50;;;;;;5023020;28;20041;-66
2022/05/08 03:09:29;;;;;;;2.08;1.40;;;23.40;47.50;;;;;;5026155;28;20033;-62
2022/05/08 03:11:55;;;;;;;1.90;1.42;;;23.40;47.50;;;;;;5023945;28;20071;-66
2022/05/08 03:14:20;;;;;;;1.58;1.23;;;23.40;47.50;;;;;;5024255;28;20462;-64
2022/05/08 03:16:47;;;;;;;1.67;1.27;;;23.40;47.50;;;;;;5022607;28;20037;-65
2022/05/08 03:19:13;;;;;;;1.63;1.30;;;23.40;47.50;;;;;;5017751;28;20197;-61
2022/05/08 03:21:40;;;;;;;1.63;1.30;;;23.40;47.50;;;;;;5022942;28;20117;-64
2022/05/08 03:24:07;;;;;;;2.10;1.30;;;23.30;47.40;;;;;;5021275;28;20508;-64
2022/05/08 03:26:33;;;;;;;1.90;1.38;;;23.30;47.50;;;;;;5022026;28;20031;-65
2022/05/08 03:28:59;;;;;;;1.55;1.23;;;23.30;47.50;;;;;;5024123;28;20036;-64
2022/05/08 03:31:25;;;;;;;1.83;1.27;;;23.30;47.50;;;;;;5022626;28;20037;-60
2022/05/08 03:33:50;;;;;;;1.50;1.20;;;23.30;47.50;;;;;;4998144;28;20056;-65
2022/05/08 03:36:16;;;;;;;1.85;1.35;;;23.30;47.50;;;;;;5022815;28;20397;-65
2022/05/08 03:38:47;;;;;;;1.63;1.30;;;23.30;47.50;;;;;;5021677;28;20119;-65
2022/05/08 03:41:15;;;;;;;1.85;1.35;;;23.30;48.00;;;;;;5021942;28;20036;-65
2022/05/08 03:43:45;;;;;;;2.03;1.20;;;23.30;47.50;;;;;;5023304;28;20427;-65
2022/05/08 03:46:10;;;;;;;2.00;1.30;;;23.30;47.50;;;;;;5021564;28;20040;-65
2022/05/08 03:48:36;;;;;;;2.08;1.30;;;23.30;47.50;;;;;;5021693;28;20041;-64
2022/05/08 03:51:03;;;;;;;1.40;1.20;;;23.20;47.40;;;;;;5022664;28;20032;-65
2022/05/08 03:53:28;;;;;;;1.77;1.20;;;23.20;47.40;;;;;;5022712;28;20029;-65
2022/05/08 03:55:54;;;;;;;1.63;1.10;;;23.20;47.40;;;;;;5022278;28;20021;-62
2022/05/08 03:58:20;;;;;;;1.80;1.30;;;23.20;47.40;;;;;;5021970;28;20052;-66
2022/05/08 04:00:46;;;;;;;1.60;1.23;;;23.20;47.50;;;;;;5011962;28;20114;-61
2022/05/08 04:03:12;;;;;;;1.73;1.25;;;23.20;47.50;;;;;;5020144;28;20025;-66
2022/05/08 04:05:37;;;;;;;1.50;1.20;;;23.20;47.40;;;;;;5021678;28;20021;-65
2022/05/08 04:08:03;;;;;;;1.60;1.20;;;23.20;47.50;;;;;;5021973;28;20060;-65
2022/05/08 04:10:29;;;;;;;1.75;1.20;;;23.20;47.50;;;;;;5022877;28;20059;-60
2022/05/08 04:12:54;;;;;;;1.50;1.20;;;23.20;47.50;;;;;;5020057;28;20067;-65
2022/05/08 04:18:04;;;;;;;1.33;1.02;;;23.20;47.50;;;;;;5018265;28;20032;-62
2022/05/08 04:20:30;;;;;;;1.60;1.20;;;23.20;47.50;;;;;;5018459;28;20037;-65
2022/05/08 04:25:40;;;;;;;1.38;1.10;;;23.20;47.50;;;;;;5019069;28;20067;-65
2022/05/08 04:28:05;;;;;;;1.33;1.05;;;23.20;47.50;;;;;;5004203;28;20053;-65
2022/05/08 04:30:31;;;;;;;1.70;1.10;;;23.10;47.50;;;;;;5021824;28;20213;-65
2022/05/08 04:32:57;;;;;;;1.88;1.30;;;23.10;47.50;;;;;;5022101;28;20024;-65
2022/05/08 04:35:22;;;;;;;1.40;1.20;;;23.10;47.50;;;;;;5022781;28;20584;-65
2022/05/08 04:37:48;;;;;;;1.80;1.25;;;23.10;47.50;;;;;;5026353;28;20045;-65
2022/05/08 04:40:13;;;;;;;1.50;1.10;;;23.10;47.50;;;;;;5023560;28;21489;-65
2022/05/08 04:42:39;;;;;;;1.65;1.23;;;23.10;47.50;;;;;;5023098;28;20021;-65
2022/05/08 04:45:06;;;;;;;1.50;1.30;;;23.10;47.50;;;;;;5022850;28;20047;-64
2022/05/08 04:47:31;;;;;;;1.92;1.33;;;23.10;47.50;;;;;;5022981;28;20068;-65
2022/05/08 04:49:57;;;;;;;1.75;1.17;;;23.10;47.50;;;;;;5022888;28;20036;-65
2022/05/08 04:52:22;;;;;;;1.38;1.17;;;23.10;47.50;;;;;;5024761;28;20026;-65
2022/05/08 04:54:48;;;;;;;1.40;1.13;;;23.10;47.50;;;;;;5024060;28;20166;-64
2022/05/08 04:57:14;;;;;;;1.40;1.10;;;23.10;47.50;;;;;;5024122;28;20082;-65
2022/05/08 04:59:39;;;;;;;1.30;1.00;;;23.10;47.50;;;;;;5026340;28;20452;-64
2022/05/08 05:02:05;;;;;;;1.98;1.20;;;23.10;47.50;;;;;;5023827;28;20163;-65
2022/05/08 05:04:31;;;;;;;1.50;1.20;;;23.10;47.50;;;;;;5021486;28;20029;-65
2022/05/08 05:06:59;;;;;;;1.48;1.13;;;23.10;47.50;;;;;;5024346;28;20512;-65
2022/05/08 05:09:24;;;;;;;1.80;1.20;;;23.00;47.50;;;;;;5024984;28;20026;-65
2022/05/08 05:11:50;;;;;;;1.77;1.30;;;23.00;47.50;;;;;;5024842;28;20117;-60
2022/05/08 05:14:16;;;;;;;1.67;1.20;;;23.00;47.50;;;;;;5025042;28;20409;-63
2022/05/08 05:16:41;;;;;;;1.70;1.10;;;23.00;47.60;;;;;;5023433;28;20056;-65
2022/05/08 05:19:07;;;;;;;1.35;1.10;;;23.00;47.50;;;;;;5022633;28;20037;-65
2022/05/08 05:21:32;;;;;;;1.50;1.20;;;23.00;47.60;;;;;;5021373;28;20508;-63
2022/05/08 05:23:58;;;;;;;1.95;1.30;;;23.00;47.60;;;;;;5023766;28;20059;-64
2022/05/08 05:26:24;;;;;;;1.05;0.98;;;23.00;47.50;;;;;;5024536;28;20119;-65
2022/05/08 05:28:51;;;;;;;1.48;1.10;;;23.00;47.60;;;;;;5024882;28;20028;-65
2022/05/08 05:31:17;;;;;;;1.90;1.20;;;23.00;47.60;;;;;;5022430;28;20510;-65
2022/05/08 05:33:46;;;;;;;1.58;1.10;;;22.90;47.50;;;;;;5020927;28;20108;-65
2022/05/08 05:36:12;;;;;;;1.53;1.20;;;23.00;47.60;;;;;;5020156;28;20048;-64
2022/05/08 05:38:37;;;;;;;1.42;1.10;;;23.00;47.60;;;;;;5023401;28;20271;-64
2022/05/08 05:41:03;;;;;;;1.48;1.10;;;22.90;47.60;;;;;;5025291;28;20021;-62
2022/05/08 05:43:29;;;;;;;1.58;1.10;;;22.90;47.60;;;;;;5009848;28;20393;-64
2022/05/08 05:48:38;;;;;;;1.10;1.00;;;22.90;47.60;;;;;;5021527;28;20155;-64
2022/05/08 05:51:05;;;;;;;1.33;1.00;;;22.90;47.60;;;;;;5025485;28;20100;-65
2022/05/08 05:53:32;;;;;;;1.63;1.23;;;22.90;47.60;;;;;;5024640;28;20110;-60
2022/05/08 05:55:58;;;;;;;1.20;1.10;;;22.90;47.60;;;;;;5023575;28;20032;-64
2022/05/08 05:58:24;;;;;;;1.65;1.10;;;22.90;47.60;;;;;;5022317;28;20025;-64
2022/05/08 06:00:49;;;;;;;1.40;1.10;;;22.90;47.60;;;;;;5023622;28;20037;-64
2022/05/08 06:03:15;;;;;;;1.30;1.00;;;22.90;47.60;;;;;;5006472;28;20040;-63
2022/05/08 06:05:41;;;;;;;1.75;1.13;;;22.90;47.60;;;;;;5022545;28;20286;-64
2022/05/08 06:08:07;;;;;;;1.60;1.00;;;22.90;47.60;;;;;;5003890;28;20017;-60
2022/05/08 06:10:32;;;;;;;1.60;1.27;;;22.90;47.70;;;;;;5024210;28;20094;-64
2022/05/08 06:12:58;;;;;;;1.73;1.20;;;22.90;47.70;;;;;;5022221;28;20135;-64
2022/05/08 06:15:24;;;;;;;1.60;1.30;;;22.90;47.70;;;;;;5022698;28;20040;-65
2022/05/08 06:17:50;;;;;;;1.50;1.10;;;22.90;47.70;;;;;;5022379;28;20914;-61
2022/05/08 06:20:15;;;;;;;1.25;1.08;;;22.90;47.70;;;;;;5023301;28;20029;-65
2022/05/08 06:22:41;;;;;;;1.52;1.20;;;22.90;47.70;;;;;;5024823;28;20029;-60
2022/05/08 06:25:07;;;;;;;1.33;1.02;;;22.80;47.70;;;;;;5021862;28;20045;-64
2022/05/08 06:27:32;;;;;;;1.85;1.20;;;22.90;47.80;;;;;;5024023;28;20029;-64
2022/05/08 06:29:59;;;;;;;1.67;1.20;;;22.80;47.70;;;;;;5023365;28;20412;-61
2022/05/08 06:32:25;;;;;;;1.40;1.13;;;22.80;47.70;;;;;;5022479;28;20037;-65
2022/05/08 06:34:50;;;;;;;1.27;1.00;;;22.80;47.70;;;;;;5021743;28;20028;-64
2022/05/08 06:37:19;;;;;;;3.28;1.40;;;22.80;47.70;;;;;;5019434;28;20021;-67
2022/05/08 06:39:44;;;;;;;1.52;1.10;;;22.80;47.70;;;;;;5019225;28;20726;-61
2022/05/08 06:42:10;;;;;;;1.70;1.10;;;22.80;47.70;;;;;;5020846;28;20030;-65
2022/05/08 06:44:36;;;;;;;1.60;1.20;;;22.80;47.70;;;;;;5019648;28;20029;-62
2022/05/08 06:47:01;;;;;;;1.52;1.15;;;22.80;47.70;;;;;;5021604;28;20141;-64
2022/05/08 06:49:27;;;;;;;1.30;1.08;;;22.80;47.70;;;;;;5020476;28;20025;-64
2022/05/08 06:51:53;;;;;;;1.27;1.10;;;22.80;47.70;;;;;;5021980;28;20031;-61
2022/05/08 06:54:19;;;;;;;1.58;1.10;;;22.80;47.70;;;;;;5020668;28;20061;-65
2022/05/08 06:56:45;;;;;;;1.58;1.13;;;22.80;47.80;;;;;;5020683;28;20059;-60
2022/05/08 07:01:55;;;;;;;2.13;1.38;;;22.80;47.80;;;;;;5021641;28;20052;-64
2022/05/08 07:04:21;;;;;;;1.65;1.20;;;22.80;47.80;;;;;;5022266;28;20033;-64
2022/05/08 07:06:47;;;;;;;1.77;1.15;;;22.80;47.80;;;;;;5023413;28;20029;-61
2022/05/08 07:09:13;;;;;;;1.33;1.10;;;22.80;47.70;;;;;;5024303;28;20031;-65
2022/05/08 07:11:41;;;;;;;1.35;1.05;;;22.80;47.70;;;;;;5018594;28;20129;-65
2022/05/08 07:14:07;;;;;;;1.40;1.15;;;22.80;47.70;;;;;;5025506;28;20136;-64
2022/05/08 07:16:33;;;;;;;1.50;1.08;;;22.80;47.70;;;;;;5020110;28;20172;-64
2022/05/08 07:18:59;;;;;;;1.25;1.00;;;22.70;47.70;;;;;;5020287;28;20113;-64
2022/05/08 07:21:25;;;;;;;1.58;1.10;;;22.80;47.70;;;;;;5022073;28;20038;-65
2022/05/08 07:23:50;;;;;;;1.48;1.08;;;22.70;47.70;;;;;;5023088;28;20025;-65
2022/05/08 07:26:16;;;;;;;2.47;1.02;;;22.70;47.70;;;;;;5022574;28;20106;-61
2022/05/08 07:28:42;;;;;;;1.90;1.10;;;22.80;47.80;;;;;;5023505;28;20117;-64
2022/05/08 07:31:08;;;;;;;1.75;1.30;;;22.70;47.80;;;;;;5022939;28;20114;-64
2022/05/08 07:33:38;;;;;;;1.58;1.20;;;22.70;48.40;;;;;;5019951;28;20638;-62
2022/05/08 07:36:15;;;;;;;1.80;1.13;;;22.70;47.90;;;;;;5019662;28;20021;-65
2022/05/08 07:38:48;;;;;;;2.03;1.33;;;22.70;47.90;;;;;;5022408;28;20036;-65
2022/05/08 07:41:17;;;;;;;1.92;1.30;;;22.70;47.90;;;;;;5020619;28;20056;-66
2022/05/08 07:43:47;;;;;;;2.67;1.30;;;22.70;48.00;;;;;;5019687;28;20055;-64
2022/05/08 07:46:15;;;;;;;2.00;1.33;;;22.80;48.00;;;;;;5025291;28;20032;-65
2022/05/08 07:48:41;;;;;;;1.60;1.30;;;22.80;47.90;;;;;;5020661;28;20381;-65
2022/05/08 07:51:06;;;;;;;1.60;1.23;;;22.80;47.90;;;;;;5022530;28;20089;-65
2022/05/08 07:53:34;;;;;;;2.03;1.27;;;22.80;47.80;;;;;;5024682;28;20029;-65
2022/05/08 07:56:00;;;;;;;1.92;1.40;;;22.70;47.80;;;;;;5022616;28;20047;-66
2022/05/08 07:58:32;;;;;;;2.63;1.52;;;22.70;47.80;;;;;;5022533;28;20030;-64
2022/05/08 08:00:59;;;;;;;1.55;1.23;;;22.70;47.80;;;;;;5020866;28;20033;-65
2022/05/08 08:03:27;;;;;;;1.83;1.30;;;22.70;47.90;;;;;;5023598;28;20136;-64
2022/05/08 08:05:54;;;;;;;2.45;1.40;;;22.70;47.90;;;;;;5020298;28;20937;-64
2022/05/08 08:08:23;;;;;;;1.88;1.33;;;22.70;47.80;;;;;;5022675;28;20327;-66
2022/05/08 08:10:51;;;;;;;2.22;1.50;;;22.70;47.80;;;;;;5021983;28;20125;-63
2022/05/08 08:13:19;;;;;;;1.60;1.20;;;22.70;47.90;;;;;;5023991;28;20564;-65
2022/05/08 08:15:45;;;;;;;1.90;1.30;;;22.70;47.80;;;;;;5024904;28;20103;-66
2022/05/08 08:18:12;;;;;;;1.83;1.30;;;22.70;47.80;;;;;;5019881;28;20032;-65
2022/05/08 08:20:38;;;;;;;2.58;1.60;;;22.70;47.80;;;;;;5022599;28;20034;-66
2022/05/08 08:23:04;;;;;;;2.40;1.50;;;22.70;47.80;;;;;;5021798;28;20033;-66
2022/05/08 08:25:30;;;;;;;1.95;1.30;;;22.70;47.80;;;;;;5020919;28;20553;-65
2022/05/08 08:27:56;;;;;;;2.55;1.45;;;22.70;47.80;;;;;;5024699;28;20033;-62
2022/05/08 08:30:21;;;;;;;3.03;1.35;;;22.70;47.80;;;;;;5023647;28;20315;-62
2022/05/08 08:32:47;;;;;;;3.00;1.48;;;22.70;47.80;;;;;;5020314;28;20200;-65
2022/05/08 08:35:13;;;;;;;3.05;1.40;;;22.70;47.80;;;;;;5020813;28;20053;-65
2022/05/08 08:37:39;;;;;;;3.80;1.40;;;22.70;47.80;;;;;;5022044;28;20106;-64
2022/05/08 08:40:05;;;;;;;1.95;1.60;;;22.70;47.80;;;;;;5022480;28;20120;-65
2022/05/08 08:42:31;;;;;;;2.47;1.33;;;22.70;47.80;;;;;;5022857;28;20099;-65
2022/05/08 08:47:54;;;;;;;1.98;1.33;;;22.70;47.70;;;;;;5017927;28;20510;-65
2022/05/08 08:50:23;;;;;;;2.67;1.40;;;22.70;47.70;;;;;;5021679;28;20025;-61
2022/05/08 08:52:49;;;;;;;;;;;22.70;47.70;;;;;;5022513;28;20036;-65
2022/05/08 08:55:16;;;;;;;1.88;1.25;;;22.70;47.80;;;;;;5025346;28;19909;-65
2022/05/08 08:57:44;;;;;;;2.42;1.50;;;22.70;47.70;;;;;;5029736;28;20110;-65
2022/05/08 09:00:10;;;;;;;1.90;1.40;;;22.70;47.70;;;;;;5020766;28;20036;-65
2022/05/08 09:02:36;;;;;;;2.45;1.50;;;22.70;47.70;;;;;;5023837;28;20782;-65
2022/05/08 09:05:05;;;;;;;2.08;1.48;;;22.70;47.70;;;;;;5018990;28;20096;-65
2022/05/08 09:07:38;;;;;;;2.20;1.52;;;22.70;47.70;;;;;;5023115;28;20520;-65
2022/05/08 09:10:08;;;;;;;2.22;1.60;;;22.70;47.70;;;;;;5020154;28;20033;-66
2022/05/08 09:12:34;;;;;;;2.20;1.50;;;22.70;47.70;;;;;;5019700;28;20052;-65
2022/05/08 09:15:15;;;;;;;2.85;1.60;;;22.70;47.70;;;;;;5021554;28;20032;-65
2022/05/08 09:17:45;;;;;;;2.83;1.38;;;22.70;47.70;;;;;;5020918;28;20108;-65
2022/05/08 09:20:35;;;;;;;;;;;22.70;47.70;;;;;;5023192;28;20037;-65
2022/05/08 09:23:04;;;;;;;2.22;1.60;;;22.70;47.70;;;;;;5024827;28;19959;-65
2022/05/08 09:25:53;;;;;;;2.75;1.90;;;22.70;47.70;;;;;;5026377;28;20037;-66
2022/05/08 09:28:29;;;;;;;3.30;1.52;;;22.70;47.70;;;;;;5026856;28;20037;-65
2022/05/08 09:31:07;;;;;;;2.33;1.40;;;22.70;47.70;;;;;;5024386;28;20045;-65
2022/05/08 09:33:40;;;;;;;2.38;1.40;;;22.70;47.70;;;;;;5027387;28;20047;-66
2022/05/08 09:36:11;;;;;;;2.47;1.50;;;22.70;47.70;;;;;;5023920;28;20047;-66
2022/05/08 09:38:52;;;;;;;2.83;1.60;;;22.70;47.70;;;;;;5025967;28;20106;-65
2022/05/08 09:41:19;;;;;;;2.70;1.50;;;22.70;47.70;;;;;;5026287;28;20116;-62
2022/05/08 09:43:45;;;;;;;2.47;1.75;;;22.70;47.70;;;;;;5026725;28;20144;-66
2022/05/08 09:46:10;;;;;;;2.25;1.40;;;22.70;47.70;;;;;;5024126;28;20116;-61
2022/05/08 09:48:36;;;;;;;2.85;1.70;;;22.70;47.70;;;;;;5024100;28;20122;-66
2022/05/08 09:51:06;;;;;;;2.00;1.40;;;22.70;47.70;;;;;;5025176;28;20036;-61
2022/05/08 09:53:33;;;;;;;2.20;1.55;;;22.70;47.70;;;;;;5024884;28;20779;-65
2022/05/08 09:56:01;;;;;;;2.50;1.73;;;22.70;47.70;;;;;;5026874;28;20444;-66
2022/05/08 09:58:27;;;;;;;2.50;1.50;;;22.70;47.70;;;;;;5022779;28;20072;-66
2022/05/08 10:00:54;;;;;;;2.50;1.60;;;22.70;47.70;;;;;;5024837;28;20040;-65
2022/05/08 10:03:20;;;;;;;3.17;1.40;;;22.70;47.70;;;;;;5022362;28;20196;-65
2022/05/08 10:05:47;;;;;;;3.05;1.50;;;22.70;47.70;;;;;;5024423;28;20040;-65
2022/05/08 10:08:15;;;;;;;2.20;1.60;;;22.70;47.70;;;;;;5026688;28;20040;-65
2022/05/08 10:13:56;;;;;;;2.30;1.42;;;22.70;47.70;;;;;;5023165;28;20141;-62
2022/05/08 10:16:59;;;;;;;2.20;1.60;;;22.70;47.70;;;;;;5016556;28;20029;-65
2022/05/08 10:19:25;;;;;;;3.85;1.98;;;22.70;47.70;;;;;;5020647;28;20545;-66
2022/05/08 10:22:02;;;;;;;1.92;1.45;;;22.70;47.70;;;;;;5024883;28;20041;-66
2022/05/08 10:24:33;;;;;;;2.47;1.70;;;22.70;47.70;;;;;;5025194;28;20028;-65
2022/05/08 10:27:18;;;;;;;2.55;1.40;;;22.70;47.70;;;;;;5025598;28;20122;-66
2022/05/08 10:29:49;;;;;;;2.25;1.60;;;22.70;47.80;;;;;;5022599;28;20048;-66
2022/05/08 10:32:31;;;;;;;2.80;1.50;;;22.70;47.70;;;;;;5024530;28;20453;-66
2022/05/08 10:35:12;;;;;;;2.00;1.50;;;22.70;47.80;;;;;;5024027;28;20473;-66
2022/05/08 10:37:43;;;;;;;2.88;1.48;;;22.70;47.70;;;;;;5021467;28;20030;-66
2022/05/08 10:40:24;;;;;;;1.65;1.40;;;22.70;47.70;;;;;;5022787;28;20032;-65
2022/05/08 10:42:50;;;;;;;2.30;1.58;;;22.70;47.70;;;;;;5024843;28;20115;-66
2022/05/08 10:45:31;;;;;;;1.85;1.38;;;22.70;47.70;;;;;;5024211;28;20528;-64
2022/05/08 10:47:58;;;;;;;2.60;1.58;;;22.70;47.70;;;;;;5019448;28;20185;-65
2022/05/08 10:50:24;;;;;;;2.10;1.50;;;22.70;47.70;;;;;;5024463;28;20049;-66
2022/05/08 10:52:50;;;;;;;2.40;1.50;;;22.70;47.70;;;;;;5019507;28;20180;-62
2022/05/08 10:55:18;;;;;;;2.63;1.50;;;22.70;47.70;;;;;;5023408;28;20030;-65
2022/05/08 10:57:45;;;;;;;2.28;1.60;;;22.70;48.20;;;;;;5022867;28;20046;-61
2022/05/08 11:00:26;;;;;;;2.42;1.65;;;22.70;47.70;;;;;;5021597;28;20056;-65
2022/05/08 11:02:55;;;;;;;2.80;1.60;;;22.70;47.70;;;;;;5020278;28;20952;-66
2022/05/08 11:05:25;;;;;;;2.80;1.58;;;22.70;47.70;;;;;;5021904;28;20032;-65
2022/05/08 11:07:57;;;;;;;2.13;1.58;;;22.70;47.70;;;;;;5019467;28;20037;-66
2022/05/08 11:10:23;;;;;;;1.92;1.42;;;22.70;47.70;;;;;;5023329;28;20128;-61
2022/05/08 11:13:09;;;;;;;2.35;1.48;;;22.70;47.70;;;;;;5022612;28;20059;-65
2022/05/08 11:15:37;;;;;;;2.00;1.50;;;22.70;47.70;;;;;;5012830;28;20644;-61
2022/05/08 11:18:22;;;;;;;2.42;1.58;;;22.70;47.70;;;;;;5019534;28;20028;-61
2022/05/08 11:20:59;;;;;;;2.00;1.40;;;22.70;47.70;;;;;;5021490;28;20033;-66
2022/05/08 11:23:39;;;;;;;2.65;1.50;;;22.70;47.70;;;;;;5019992;28;20029;-68
2022/05/08 11:26:07;;;;;;;2.72;1.55;;;22.70;47.70;;;;;;5021018;28;20033;-67
2022/05/08 11:28:35;;;;;;;2.20;1.70;;;22.70;47.70;;;;;;5013057;28;20110;-67
2022/05/08 11:31:12;;;;;;;2.50;1.50;;;22.70;47.70;;;;;;5019873;28;20413;-66
2022/05/08 11:36:25;;;;;;;2.30;1.50;;;22.70;47.70;;;;;;5021039;28;20068;-67
2022/05/08 11:39:00;;;;;;;2.10;1.40;;;22.70;47.70;;;;;;5019918;28;20564;-68
2022/05/08 11:41:46;;;;;;;1.92;1.40;;;22.70;47.70;;;;;;5019965;28;20037;-67
2022/05/08 11:44:14;;;;;;;3.00;1.52;;;22.70;47.70;;;;;;5003585;28;20504;-68
2022/05/08 11:46:48;;;;;;;1.97;1.50;;;22.70;47.70;;;;;;5019665;28;20088;-67
2022/05/08 11:49:14;;;;;;;2.03;1.50;;;22.70;47.70;;;;;;5015708;28;20812;-68
2022/05/08 11:51:42;;;;;;;2.17;1.40;;;22.70;47.70;;;;;;5018314;28;20031;-67
2022/05/08 11:54:21;;;;;;;2.20;1.50;;;22.70;47.70;;;;;;5020904;28;20480;-67
2022/05/08 11:56:49;;;;;;;1.73;1.40;;;22.70;47.70;;;;;;5021436;28;20544;-63
2022/05/08 11:59:22;;;;;;;2.05;1.38;;;22.70;47.70;;;;;;5013683;28;20034;-69
2022/05/08 12:01:52;;;;;;;2.72;1.48;;;22.70;47.70;;;;;;5018847;28;20045;-65
2022/05/08 12:04:28;;;;;;;2.20;1.50;;;22.70;47.70;;;;;;5016180;28;20116;-68
2022/05/08 12:07:15;;;;;;;1.80;1.35;;;22.70;47.70;;;;;;5018108;28;20108;-61
2022/05/08 12:09:53;;;;;;;2.00;1.60;;;22.70;47.70;;;;;;5021160;28;20125;-68
2022/05/08 12:12:31;;;;;;;2.03;1.60;;;22.70;47.70;;;;;;5019617;28;20468;-67
2022/05/08 12:15:02;;;;;;;2.83;1.60;;;22.70;47.70;;;;;;5018952;28;20040;-67
2022/05/08 12:17:50;;;;;;;1.73;1.38;;;22.70;47.70;;;;;;5019156;28;20033;-67
2022/05/08 12:20:45;;;;;;;2.65;1.58;;;22.70;47.70;;;;;;5018707;28;20044;-67
2022/05/08 12:23:11;;;;;;;2.00;1.50;;;22.70;47.70;;;;;;5016536;28;20045;-67
2022/05/08 12:25:38;;;;;;;2.40;1.70;;;22.70;47.70;;;;;;5016541;28;20609;-67
2022/05/08 12:28:05;;;;;;;1.88;1.30;;;22.70;47.70;;;;;;4998416;28;20033;-68
2022/05/08 12:30:31;;;;;;;1.90;1.20;;;22.70;47.60;;;;;;5017790;28;20199;-68
2022/05/08 12:32:57;;;;;;;1.63;1.25;;;22.70;47.70;;;;;;5014596;28;20068;-68
2022/05/08 12:35:23;;;;;;;1.92;1.35;;;22.70;47.70;;;;;;5016654;28;20053;-64
2022/05/08 12:37:49;;;;;;;1.90;1.40;;;22.70;47.70;;;;;;5016619;28;20029;-64
2022/05/08 12:40:16;;;;;;;2.33;1.60;;;22.70;47.60;;;;;;5018740;28;20040;-67
2022/05/08 12:42:44;;;;;;;1.85;1.40;;;22.70;47.60;;;;;;5016817;28;20124;-65
2022/05/08 12:45:13;;;;;;;1.83;1.40;;;22.70;47.70;;;;;;4998508;28;20571;-67
2022/05/08 12:47:39;;;;;;;1.95;1.33;;;22.70;47.70;;;;;;5014463;28;20029;-67
2022/05/08 12:50:06;;;;;;;1.75;1.38;;;22.70;47.70;;;;;;5014485;28;20385;-68
2022/05/08 12:52:31;;;;;;;1.75;1.35;;;22.70;47.70;;;;;;5018393;28;20061;-67
2022/05/08 12:54:57;;;;;;;2.30;1.50;;;22.70;47.70;;;;;;5022479;28;20119;-67
2022/05/08 13:00:09;;;;;;;2.05;1.48;;;22.70;47.60;;;;;;5020163;28;20979;-65
2022/05/08 13:02:34;;;;;;;1.70;1.48;;;22.70;47.70;;;;;;5019888;28;20045;-67
2022/05/08 13:05:00;;;;;;;2.08;1.50;;;22.70;47.70;;;;;;5019386;28;20362;-68
2022/05/08 13:07:26;;;;;;;1.98;1.50;;;22.70;47.70;;;;;;5001586;28;20345;-65
2022/05/08 13:09:51;;;;;;;1.65;1.30;;;22.70;47.70;;;;;;5000038;28;20792;-68
2022/05/08 13:12:17;;;;;;;1.92;1.42;;;22.70;47.70;;;;;;5020814;28;20128;-65
2022/05/08 13:14:43;;;;;;;2.42;1.77;;;22.70;47.60;;;;;;5019893;28;20037;-68
2022/05/08 13:17:08;;;;;;;1.85;1.30;;;22.70;47.60;;;;;;5020038;28;20032;-68
2022/05/08 13:19:35;;;;;;;1.85;1.40;;;22.70;47.60;;;;;;4999996;28;20039;-67